createdAt,value
2023-06-20T00:00:41.386Z,78.82
2023-06-20T00:03:30.315Z,79.33
2023-06-20T00:05:58.096Z,79.66
2023-06-20T00:08:25.906Z,79.75
2023-06-20T00:10:53.699Z,79.69
2023-06-20T00:13:21.731Z,79.73
2023-06-20T00:15:49.679Z,79.75
2023-06-20T00:18:18.926Z,80.11
2023-06-20T00:20:47.499Z,79.95
2023-06-20T00:23:15.318Z,79.92
2023-06-20T00:25:43.188Z,80.15
2023-06-20T00:28:13.735Z,80.41
2023-06-20T00:30:41.516Z,80.53
2023-06-20T00:33:10.172Z,80.57
2023-06-20T00:35:38.486Z,80.59
2023-06-20T00:38:07.943Z,80.40
2023-06-20T00:40:35.736Z,80.27
2023-06-20T00:43:05.175Z,80.42
2023-06-20T00:45:34.556Z,80.41
2023-06-20T00:48:07.802Z,80.27
2023-06-20T00:50:36.351Z,80.23
2023-06-20T00:53:06.961Z,80.35
2023-06-20T00:55:37.022Z,80.40
2023-06-20T00:58:05.968Z,80.76
2023-06-20T01:00:35.594Z,80.81
2023-06-20T01:03:07.914Z,80.88
2023-06-20T01:05:38.225Z,81.11
2023-06-20T01:08:22.505Z,81.66
2023-06-20T01:10:58.858Z,81.74
2023-06-20T01:13:41.504Z,82.00
2023-06-20T01:16:28.010Z,82.19
2023-06-20T01:19:07.564Z,82.09
2023-06-20T01:21:43.203Z,82.50
2023-06-20T01:24:18.859Z,82.54
2023-06-20T01:26:59.032Z,82.76
2023-06-20T01:29:34.320Z,82.93
2023-06-20T01:32:07.576Z,83.00
2023-06-20T01:34:40.696Z,83.27
2023-06-20T01:37:14.693Z,83.46
2023-06-20T01:39:48.510Z,83.65
2023-06-20T01:42:21.127Z,83.87
2023-06-20T01:44:51.283Z,84.42
2023-06-20T01:47:20.596Z,85.49
2023-06-20T01:49:52.794Z,86.44
2023-06-20T01:52:22.123Z,85.95
2023-06-20T01:54:52.006Z,85.49
2023-06-20T01:57:21.645Z,85.33
2023-06-20T01:59:51.245Z,85.44
2023-06-20T02:02:20.967Z,85.49
2023-06-20T02:04:50.432Z,85.80
2023-06-20T02:07:19.036Z,85.77
2023-06-20T02:09:47.592Z,86.27
2023-06-20T02:12:17.485Z,86.31
2023-06-20T02:14:49.282Z,86.33
2023-06-20T02:17:19.499Z,86.97
2023-06-20T02:19:47.699Z,87.30
2023-06-20T02:22:18.428Z,87.60
2023-06-20T02:24:49.123Z,88.32
2023-06-20T02:27:20.558Z,88.83
2023-06-20T02:29:48.968Z,89.05
2023-06-20T02:32:18.527Z,89.34
2023-06-20T02:34:48.987Z,89.45
2023-06-20T02:37:16.912Z,89.29
2023-06-20T02:39:44.617Z,89.51
2023-06-20T02:42:12.476Z,89.57
2023-06-20T02:44:40.301Z,89.66
2023-06-20T02:47:40.567Z,89.45
2023-06-20T02:50:24.957Z,89.17
2023-06-20T02:53:02.038Z,89.24
2023-06-20T02:55:56.445Z,89.41
2023-06-20T02:58:27.455Z,89.57
2023-06-20T03:00:58.494Z,90.72
2023-06-20T03:03:34.338Z,91.03
2023-06-20T03:06:02.931Z,91.05
2023-06-20T03:08:31.591Z,90.76
2023-06-20T03:11:00.142Z,90.71
2023-06-20T03:13:28.797Z,90.66
2023-06-20T03:15:56.664Z,90.29
2023-06-20T03:18:26.017Z,90.81
2023-06-20T03:20:54.229Z,91.19
2023-06-20T03:23:22.101Z,91.46
2023-06-20T03:25:49.804Z,91.87
2023-06-20T03:28:17.586Z,91.71
2023-06-20T03:30:45.580Z,91.80
2023-06-20T03:33:13.475Z,91.58
2023-06-20T03:35:41.346Z,91.69
2023-06-20T03:38:09.146Z,92.38
2023-06-20T03:40:37.075Z,92.95
2023-06-20T03:43:04.834Z,92.85
2023-06-20T03:45:33.085Z,92.67
2023-06-20T03:48:00.986Z,92.53
2023-06-20T03:50:28.811Z,92.41
2023-06-20T03:52:56.509Z,92.31
2023-06-20T03:55:24.789Z,91.82
2023-06-20T03:57:52.952Z,90.65
2023-06-20T04:00:21.374Z,90.96
2023-06-20T04:02:49.579Z,91.36
2023-06-20T04:05:20.045Z,91.52
2023-06-20T04:07:48.249Z,91.68
2023-06-20T04:10:16.163Z,91.14
2023-06-20T04:12:44.271Z,90.69
2023-06-20T04:15:12.139Z,90.77
2023-06-20T04:17:42.356Z,90.34
2023-06-20T04:20:14.488Z,89.01
2023-06-20T04:22:46.255Z,88.86
2023-06-20T04:25:15.690Z,88.71
2023-06-20T04:27:43.737Z,87.85
2023-06-20T04:30:11.970Z,86.84
2023-06-20T04:32:40.577Z,86.57
2023-06-20T04:35:11.906Z,85.70
2023-06-20T04:37:42.834Z,85.68
2023-06-20T04:40:12.602Z,84.87
2023-06-20T04:42:40.449Z,83.82
2023-06-20T04:45:10.287Z,83.93
2023-06-20T04:47:38.521Z,83.81
2023-06-20T04:50:10.442Z,83.76
2023-06-20T04:52:38.399Z,82.46
2023-06-20T04:55:06.717Z,81.97
2023-06-20T04:57:35.187Z,81.76
2023-06-20T05:00:15.945Z,79.93
2023-06-20T05:02:43.858Z,79.45
2023-06-20T05:05:12.288Z,79.02
2023-06-20T05:07:43.567Z,78.98
2023-06-20T05:10:11.422Z,78.00
2023-06-20T05:12:39.196Z,77.52
2023-06-20T05:15:09.176Z,76.82
2023-06-20T05:17:37.064Z,76.25
2023-06-20T05:20:07.573Z,74.52
2023-06-20T05:22:36.062Z,73.83
2023-06-20T05:25:04.104Z,73.26
2023-06-20T05:27:33.616Z,72.52
2023-06-20T05:30:01.619Z,71.85
2023-06-20T05:32:31.447Z,70.82
2023-06-20T05:35:00.421Z,70.75
2023-06-20T05:37:32.137Z,66.29
2023-06-20T05:40:01.728Z,65.00
2023-06-20T05:42:33.031Z,66.07
2023-06-20T05:45:01.025Z,66.46
2023-06-20T05:47:29.808Z,66.18
2023-06-20T05:49:58.627Z,65.42
2023-06-20T05:52:26.552Z,65.11
2023-06-20T05:54:54.978Z,65.57
2023-06-20T05:57:22.981Z,63.89
2023-06-20T05:59:51.267Z,63.21
2023-06-20T06:02:20.662Z,64.02
2023-06-20T06:04:49.315Z,64.20
2023-06-20T06:07:17.240Z,64.29
2023-06-20T06:09:47.798Z,63.49
2023-06-20T06:12:16.068Z,62.89
2023-06-20T06:14:43.856Z,62.82
2023-06-20T06:17:11.654Z,61.91
2023-06-20T06:19:39.543Z,60.25
2023-06-20T06:22:07.576Z,56.94
2023-06-20T06:24:35.549Z,56.35
2023-06-20T06:27:05.302Z,55.09
2023-06-20T06:29:33.088Z,53.42
2023-06-20T06:32:01.464Z,52.82
2023-06-20T06:34:29.701Z,52.09
2023-06-20T06:36:57.748Z,53.34
2023-06-20T06:39:26.498Z,52.72
2023-06-20T06:41:54.884Z,51.19
2023-06-20T06:44:22.742Z,50.35
2023-06-20T06:46:50.679Z,50.96
2023-06-20T06:49:18.569Z,47.69
2023-06-20T06:51:48.277Z,46.09
2023-06-20T06:54:16.994Z,48.22
2023-06-20T06:56:44.721Z,49.41
2023-06-20T06:59:12.461Z,49.17
2023-06-20T07:01:40.549Z,48.55
2023-06-20T07:04:08.441Z,47.26
2023-06-20T07:06:36.224Z,46.52
2023-06-20T07:09:04.019Z,46.82
2023-06-20T07:11:31.953Z,47.36
2023-06-20T07:13:59.882Z,42.99
2023-06-20T07:16:27.763Z,42.77
2023-06-20T07:18:55.660Z,41.76
2023-06-20T07:21:23.440Z,42.43
2023-06-20T07:23:51.154Z,42.38
2023-06-20T07:26:18.925Z,42.52
2023-06-20T07:28:46.854Z,41.71
2023-06-20T07:33:09.373Z,41.20
2023-06-20T07:35:35.862Z,41.94
2023-06-20T07:38:02.261Z,40.04
2023-06-20T07:40:28.707Z,38.54
2023-06-20T07:42:56.461Z,38.69
2023-06-20T07:45:22.980Z,38.70
2023-06-20T07:47:49.504Z,38.42
2023-06-20T07:50:16.089Z,38.27
2023-06-20T07:52:43.329Z,38.09
2023-06-20T07:55:20.367Z,38.01
2023-06-20T07:57:54.385Z,37.26
2023-06-20T08:00:21.815Z,36.75
2023-06-20T08:02:48.175Z,36.23
2023-06-20T08:05:14.597Z,35.44
2023-06-20T08:07:41.911Z,35.30
2023-06-20T08:10:10.817Z,33.77
2023-06-20T08:12:38.119Z,32.77
2023-06-20T08:15:06.262Z,32.80
2023-06-20T08:17:50.571Z,31.69
2023-06-20T08:20:18.358Z,32.42
2023-06-20T08:22:46.082Z,32.43
2023-06-20T08:25:13.887Z,33.68
2023-06-20T08:27:41.665Z,34.36
2023-06-20T08:40:32.103Z,31.45
2023-06-20T08:42:59.982Z,31.11
2023-06-20T08:45:30.773Z,31.32
2023-06-20T08:48:00.592Z,30.31
2023-06-20T08:50:31.609Z,31.87
2023-06-20T08:53:05.667Z,32.99
2023-06-20T08:55:36.031Z,32.40
2023-06-20T08:58:07.889Z,31.11
2023-06-20T09:00:35.725Z,30.23
2023-06-20T09:03:04.258Z,31.25
2023-06-20T09:05:33.639Z,32.02
2023-06-20T09:08:01.681Z,34.91
2023-06-20T09:10:29.827Z,36.48
2023-06-20T09:12:58.192Z,36.84
2023-06-20T09:15:28.063Z,38.69
2023-06-20T09:17:59.498Z,39.18
2023-06-20T09:20:29.689Z,39.73
2023-06-20T09:22:59.121Z,40.89
2023-06-20T09:25:30.161Z,41.12
2023-06-20T09:27:58.829Z,40.09
2023-06-20T09:30:31.924Z,39.37
2023-06-20T09:33:07.148Z,37.73
2023-06-20T09:35:35.143Z,37.99
2023-06-20T09:38:05.598Z,36.52
2023-06-20T09:40:45.816Z,35.80
2023-06-20T09:43:14.056Z,35.60
2023-06-20T09:45:41.875Z,34.30
2023-06-20T09:48:10.692Z,33.14
2023-06-20T09:50:40.012Z,31.83
2023-06-20T09:53:23.436Z,30.51
2023-06-20T09:55:52.893Z,29.99
2023-06-20T09:58:22.862Z,28.84
2023-06-20T10:00:51.262Z,27.23
2023-06-20T10:03:19.937Z,27.40
2023-06-20T10:05:48.368Z,25.86
2023-06-20T10:08:17.600Z,26.48
2023-06-20T10:10:45.342Z,26.26
2023-06-20T10:13:14.156Z,28.15
2023-06-20T10:15:41.912Z,27.75
2023-06-20T10:18:37.574Z,28.99
2023-06-20T10:21:07.477Z,29.42
2023-06-20T10:23:38.349Z,27.27
2023-06-20T10:26:09.493Z,28.09
2023-06-20T10:28:40.067Z,29.14
2023-06-20T10:31:08.281Z,30.06
2023-06-20T10:33:38.292Z,29.26
2023-06-20T10:36:11.208Z,29.88
2023-06-20T10:39:00.566Z,29.19
2023-06-20T10:41:29.899Z,28.35
2023-06-20T10:44:00.256Z,28.99
2023-06-20T10:46:43.282Z,28.72
2023-06-20T10:49:11.816Z,28.20
2023-06-20T10:51:47.210Z,27.87
2023-06-20T10:54:17.117Z,28.26
2023-06-20T10:56:45.402Z,29.07
2023-06-20T10:59:15.190Z,29.53
2023-06-20T11:01:44.782Z,31.14
2023-06-20T11:04:14.556Z,31.57
2023-06-20T11:06:43.492Z,31.72
2023-06-20T11:09:22.323Z,33.08
2023-06-20T11:11:52.267Z,32.14
2023-06-20T11:14:22.015Z,32.47
2023-06-20T11:16:52.243Z,31.49
2023-06-20T11:21:55.566Z,31.13
2023-06-20T11:24:23.502Z,31.98
2023-06-20T11:26:52.020Z,32.49
2023-06-20T11:29:19.835Z,32.35
2023-06-20T11:31:47.625Z,32.17
2023-06-20T11:34:18.246Z,32.85
2023-06-20T11:36:46.088Z,34.03
2023-06-20T11:39:15.413Z,34.79
2023-06-20T11:41:43.238Z,36.40
2023-06-20T11:44:26.204Z,35.12
2023-06-20T11:46:58.121Z,33.21
2023-06-20T11:49:33.138Z,32.51
2023-06-20T11:52:01.225Z,33.11
2023-06-20T11:54:29.183Z,34.70
2023-06-20T11:56:57.311Z,34.30
2023-06-20T11:59:25.889Z,34.34
2023-06-20T12:01:54.195Z,32.05
2023-06-20T12:04:23.325Z,30.23
2023-06-20T12:07:04.610Z,28.70
2023-06-20T12:09:41.975Z,27.66
2023-06-20T12:12:10.815Z,26.31
2023-06-20T12:14:39.064Z,26.32
2023-06-20T12:17:06.966Z,26.46
2023-06-20T12:19:36.216Z,27.26
2023-06-20T12:22:04.366Z,27.82
2023-06-20T12:24:32.208Z,28.49
2023-06-20T12:27:00.067Z,29.19
2023-06-20T12:29:27.925Z,29.83
2023-06-20T12:31:55.675Z,29.97
2023-06-20T12:34:23.433Z,30.02
2023-06-20T12:36:52.768Z,29.81
2023-06-20T12:39:20.638Z,29.99
2023-06-20T12:41:48.679Z,30.05
2023-06-20T12:44:16.489Z,29.20
2023-06-20T12:46:44.303Z,28.52
2023-06-20T12:49:12.066Z,28.13
2023-06-20T12:51:40.030Z,27.49
2023-06-20T12:54:07.784Z,27.18
2023-06-20T12:56:36.032Z,27.24
2023-06-20T12:59:05.485Z,26.42
2023-06-20T13:01:33.469Z,27.11
2023-06-20T13:04:01.369Z,27.00
2023-06-20T13:06:29.144Z,26.04
2023-06-20T13:08:56.886Z,26.40
2023-06-20T13:11:24.639Z,27.29
2023-06-20T13:13:52.396Z,26.09
2023-06-20T13:16:20.312Z,25.66
2023-06-20T13:18:48.312Z,26.50
2023-06-20T13:21:16.071Z,27.70
2023-06-20T13:23:53.073Z,29.12
2023-06-20T13:26:31.949Z,30.27
2023-06-20T13:29:00.145Z,31.34
2023-06-20T13:31:28.040Z,30.19
2023-06-20T13:33:55.868Z,29.35
2023-06-20T13:36:23.721Z,29.30
2023-06-20T13:38:51.656Z,29.88
2023-06-20T13:41:19.682Z,28.88
2023-06-20T13:43:47.486Z,27.59
2023-06-20T13:46:15.273Z,26.65
2023-06-20T13:48:43.080Z,26.98
2023-06-20T13:51:10.875Z,25.70
2023-06-20T13:53:38.614Z,25.18
2023-06-20T13:56:06.610Z,25.03
2023-06-20T13:58:34.575Z,24.36
2023-06-20T14:01:02.285Z,24.69
2023-06-20T14:03:30.103Z,24.93
2023-06-20T14:05:59.200Z,24.26
2023-06-20T14:08:27.511Z,24.46
2023-06-20T14:10:55.410Z,24.62
2023-06-20T14:13:24.213Z,24.76
2023-06-20T14:15:57.435Z,24.68
2023-06-20T14:18:27.329Z,24.87
2023-06-20T14:20:55.803Z,24.69
2023-06-20T14:23:26.206Z,24.67
2023-06-20T14:26:08.834Z,24.62
2023-06-20T14:28:39.755Z,23.99
2023-06-20T14:31:13.530Z,23.83
2023-06-20T14:33:42.281Z,24.27
2023-06-20T14:36:31.899Z,24.88
2023-06-20T14:38:59.641Z,26.45
2023-06-20T14:41:29.092Z,25.79
2023-06-20T14:43:57.080Z,25.04
2023-06-20T14:46:24.966Z,25.75
2023-06-20T14:48:53.290Z,26.79
2023-06-20T14:51:25.124Z,28.02
2023-06-20T14:53:54.388Z,27.01
2023-06-20T14:56:22.259Z,25.77
2023-06-20T14:58:50.117Z,24.92
2023-06-20T15:01:17.956Z,24.13
2023-06-20T15:03:45.807Z,24.06
2023-06-20T15:06:13.854Z,24.37
2023-06-20T15:08:41.620Z,23.98
2023-06-20T15:11:09.481Z,24.03
2023-06-20T15:13:37.239Z,23.74
2023-06-20T15:16:05.220Z,23.76
2023-06-20T15:18:33.469Z,24.10
2023-06-20T15:21:01.212Z,24.73
2023-06-20T15:23:29.093Z,25.19
2023-06-20T15:25:56.985Z,25.02
2023-06-20T15:28:24.976Z,24.05
2023-06-20T15:30:52.785Z,24.18
2023-06-20T15:33:20.546Z,24.53
2023-06-20T15:35:48.337Z,25.53
2023-06-20T15:38:16.065Z,26.05
2023-06-20T15:40:44.104Z,26.40
2023-06-20T15:43:12.210Z,27.46
2023-06-20T15:45:40.889Z,28.80
2023-06-20T15:48:10.453Z,29.20
2023-06-20T15:50:38.257Z,29.70
2023-06-20T15:53:06.978Z,29.97
2023-06-20T15:55:35.273Z,30.15
2023-06-20T15:58:03.903Z,29.97
2023-06-20T16:00:31.822Z,29.91
2023-06-20T16:03:00.591Z,30.03
2023-06-20T16:05:29.539Z,30.45
2023-06-20T16:07:58.718Z,31.03
2023-06-20T16:10:26.920Z,30.95
2023-06-20T16:12:55.301Z,31.75
2023-06-20T16:15:23.354Z,31.56
2023-06-20T16:17:51.278Z,31.99
2023-06-20T16:20:19.187Z,32.26
2023-06-20T16:22:46.952Z,31.89
2023-06-20T16:25:14.808Z,32.16
2023-06-20T16:27:42.676Z,32.92
2023-06-20T16:30:11.277Z,34.19
2023-06-20T16:32:41.444Z,34.29
2023-06-20T16:35:09.688Z,34.31
2023-06-20T16:44:41.988Z,35.81
2023-06-20T16:47:09.563Z,35.97
2023-06-20T16:49:36.729Z,36.16
2023-06-20T16:52:03.541Z,36.42
2023-06-20T16:54:30.291Z,36.52
2023-06-20T16:56:56.688Z,36.68
2023-06-20T16:59:23.151Z,36.75
2023-06-20T17:01:49.601Z,37.13
2023-06-20T17:04:15.977Z,37.47
2023-06-20T17:06:42.430Z,36.82
2023-06-20T17:09:09.366Z,37.04
2023-06-20T17:11:36.006Z,38.02
2023-06-20T17:14:05.406Z,37.97
2023-06-20T17:16:31.737Z,38.26
2023-06-20T17:18:59.997Z,38.59
2023-06-20T17:21:26.535Z,39.17
2023-06-20T17:24:04.036Z,39.04
2023-06-20T17:26:31.098Z,39.63
2023-06-20T17:28:59.937Z,40.24
2023-06-20T17:31:28.593Z,40.44
2023-06-20T17:33:55.937Z,41.35
2023-06-20T17:36:23.387Z,42.06
2023-06-20T17:38:53.430Z,42.03
2023-06-20T17:41:20.449Z,42.27
2023-06-20T17:43:50.271Z,42.83
2023-06-20T17:46:18.668Z,43.28
2023-06-20T17:48:45.069Z,43.60
2023-06-20T17:51:11.733Z,43.87
2023-06-20T17:53:39.920Z,44.97
2023-06-20T17:56:06.808Z,45.45
2023-06-20T17:58:34.288Z,46.11
2023-06-20T18:01:02.738Z,47.06
2023-06-20T18:03:29.368Z,47.74
2023-06-20T18:05:56.653Z,48.24
2023-06-20T18:08:24.312Z,48.26
2023-06-20T18:10:55.790Z,48.80
2023-06-20T18:13:22.235Z,48.71
2023-06-20T18:15:50.213Z,48.40
2023-06-20T18:18:16.540Z,49.15
2023-06-20T18:20:43.566Z,49.43
2023-06-20T18:23:13.896Z,50.17
2023-06-20T18:25:43.751Z,51.02
2023-06-20T18:28:10.842Z,51.67
2023-06-20T18:30:39.124Z,52.20
2023-06-20T18:33:08.273Z,52.83
2023-06-20T18:35:39.969Z,52.95
2023-06-20T18:38:07.946Z,53.39
2023-06-20T18:40:34.342Z,53.96
2023-06-20T18:43:04.271Z,54.35
2023-06-20T18:45:34.240Z,54.58
2023-06-20T18:48:01.632Z,55.06
2023-06-20T18:50:29.284Z,55.62
2023-06-20T18:52:58.028Z,55.73
2023-06-20T18:55:24.485Z,55.81
2023-06-20T18:57:51.195Z,56.06
2023-06-20T19:00:17.873Z,56.85
2023-06-20T19:02:45.372Z,57.25
2023-06-20T19:05:12.266Z,57.75
2023-06-20T19:07:38.672Z,58.32
2023-06-20T19:10:11.376Z,58.80
2023-06-20T19:12:39.030Z,59.03
2023-06-20T19:15:06.296Z,58.78
2023-06-20T19:17:32.849Z,59.10
2023-06-20T19:20:57.894Z,59.40
2023-06-20T19:23:26.187Z,59.68
2023-06-20T19:25:55.757Z,59.62
2023-06-20T19:28:23.660Z,59.48
2023-06-20T19:30:54.565Z,59.37
2023-06-20T19:33:22.515Z,59.68
2023-06-20T19:35:50.374Z,60.14
2023-06-20T19:38:22.549Z,60.60
2023-06-20T19:40:51.289Z,60.72
2023-06-20T19:43:19.491Z,60.99
2023-06-20T19:45:47.675Z,60.99
2023-06-20T19:48:17.220Z,60.25
2023-06-20T19:50:45.220Z,60.28
2023-06-20T19:53:13.087Z,60.14
2023-06-20T19:55:41.232Z,61.10
2023-06-20T19:58:09.184Z,61.28
2023-06-20T20:00:37.040Z,62.00
2023-06-20T20:03:08.314Z,62.44
2023-06-20T20:05:38.399Z,62.36
2023-06-20T20:08:07.194Z,62.27
2023-06-20T20:10:35.238Z,62.15
2023-06-20T20:13:03.383Z,62.06
2023-06-20T20:16:48.395Z,62.61
2023-06-20T20:19:18.334Z,63.07
2023-06-20T20:21:47.228Z,63.64
2023-06-20T20:24:15.931Z,63.98
2023-06-20T20:26:43.895Z,64.42
2023-06-20T20:29:11.961Z,64.38
2023-06-20T20:31:39.893Z,64.63
2023-06-20T20:34:08.111Z,64.66
2023-06-20T20:36:36.120Z,64.85
2023-06-20T20:39:04.905Z,65.23
2023-06-20T20:41:33.106Z,65.31
2023-06-20T20:44:00.954Z,65.49
2023-06-20T20:46:29.071Z,65.75
2023-06-20T20:48:57.780Z,65.76
2023-06-20T20:51:25.820Z,66.17
2023-06-20T20:53:53.755Z,66.58
2023-06-20T20:56:21.821Z,66.50
2023-06-20T20:58:49.731Z,66.35
2023-06-20T21:01:17.671Z,66.47
2023-06-20T21:03:46.465Z,66.99
2023-06-20T21:06:14.994Z,67.17
2023-06-20T21:08:43.106Z,67.47
2023-06-20T21:11:10.976Z,67.82
2023-06-20T21:13:39.144Z,68.08
2023-06-20T21:16:09.424Z,67.99
2023-06-20T21:18:37.320Z,68.54
2023-06-20T21:21:05.247Z,68.67
2023-06-20T21:23:33.291Z,69.03
2023-06-20T21:26:01.231Z,69.03
2023-06-20T21:28:29.125Z,68.82
2023-06-20T21:30:57.082Z,69.09
2023-06-20T21:33:24.899Z,69.48
2023-06-20T21:35:52.665Z,69.89
2023-06-20T21:38:20.781Z,69.79
2023-06-20T21:40:50.492Z,69.94
2023-06-20T21:43:18.475Z,70.06
2023-06-20T21:45:46.332Z,70.50
2023-06-20T21:48:14.431Z,70.64
2023-06-20T21:50:42.318Z,70.63
2023-06-20T21:53:12.517Z,70.97
2023-06-20T21:55:41.262Z,70.83
2023-06-20T21:58:09.663Z,70.87
2023-06-20T22:00:37.669Z,70.82
2023-06-20T22:03:05.676Z,70.92
2023-06-20T22:05:33.774Z,71.24
2023-06-20T22:08:02.498Z,71.20
2023-06-20T22:10:59.184Z,71.47
2023-06-20T22:13:45.562Z,71.69
2023-06-20T22:16:13.299Z,71.73
2023-06-20T22:18:41.210Z,71.99
2023-06-20T22:22:14.842Z,72.40
2023-06-20T22:24:42.557Z,73.09
2023-06-20T22:27:12.035Z,73.30
2023-06-20T22:29:40.486Z,73.35
2023-06-20T22:32:09.086Z,73.10
2023-06-20T22:34:37.047Z,72.60
2023-06-20T22:37:05.024Z,72.57
2023-06-20T22:39:33.272Z,72.71
2023-06-20T22:42:04.105Z,72.81
2023-06-20T22:44:32.024Z,73.14
2023-06-20T22:47:01.969Z,72.15
2023-06-20T22:49:29.826Z,72.10
2023-06-20T22:51:57.940Z,72.46
2023-06-20T22:54:26.170Z,72.91
2023-06-20T22:56:54.089Z,72.67
2023-06-20T22:59:22.092Z,72.88
2023-06-20T23:01:50.056Z,72.40
2023-06-20T23:04:17.878Z,72.48
2023-06-20T23:06:45.890Z,72.57
2023-06-20T23:09:13.680Z,72.72
2023-06-20T23:11:41.451Z,72.30
2023-06-20T23:14:09.329Z,71.51
2023-06-20T23:16:37.499Z,71.66
2023-06-20T23:19:05.241Z,71.65
2023-06-20T23:21:33.026Z,71.83
2023-06-20T23:24:05.019Z,72.52
2023-06-20T23:26:36.957Z,72.84
2023-06-20T23:29:05.968Z,73.01
2023-06-20T23:31:33.977Z,73.16
2023-06-20T23:34:01.993Z,72.84
2023-06-20T23:36:29.784Z,72.25
2023-06-20T23:38:57.981Z,72.05
2023-06-20T23:41:26.037Z,72.15
2023-06-20T23:43:54.737Z,72.37
2023-06-20T23:46:22.528Z,72.66
2023-06-20T23:48:50.473Z,72.89
2023-06-20T23:51:18.590Z,73.18
2023-06-20T23:53:46.858Z,73.12
2023-06-20T23:56:14.685Z,73.25
2023-06-20T23:58:42.493Z,72.97
